ftp/pub/mcmurdo/phoenix/solar/2018/10/NZFX.CRREL.SOLAR.2018.10.11.1740.dat

Download

"TOA5","C150","CR1000","43625","CR1000.Std.22","CPU:247411_r6_eppley7.CR1","60899","eppley_data"
"TIMESTAMP","RECORD","PIR_net","Case_Temp_K","PSP_in_Avg","PSP_in_Min","PSP_in_Max","PIR_in_Avg","PIR_in_Min","PIR_in_Max","wd_2minavg","ws_2minavg","AirTC","RH","BP_mbar"
"TS","RN","","","","","","","","","","","Deg C","Percent","Millibar"
"","","Smp","Smp","Avg","Min","Max","Avg","Min","Max","Smp","Smp","Smp","Smp","Smp"
"2018-10-11 17:40:00",34253,"NAN","NAN",24.61,24.1,24.89,"NAN","NAN","NAN",127.1,6.239,-13.04,77.88,970
"2018-10-11 17:50:00",34254,"NAN","NAN",26.63,24.89,28.45,"NAN","NAN","NAN",131.4,7.566,-13.38,77.41,970
"2018-10-11 18:00:00",34255,"NAN","NAN",31.48,28.05,36.75,"NAN","NAN","NAN",141.6,9.49,-13.28,76.35,971
"2018-10-11 18:10:00",34256,"NAN","NAN",39.22,36.75,41.49,"NAN","NAN","NAN",129,10.24,-13.58,77.71,971
"2018-10-11 18:20:00",34257,"NAN","NAN",43.82,41.09,47.02,"NAN","NAN","NAN",131.3,8.07,-14.27,79.59,971
"2018-10-11 18:30:00",34258,"NAN","NAN",53.73,47.02,60.45,"NAN","NAN","NAN",121.4,8.04,-14.03,80.2,972
"2018-10-11 18:40:00",34259,"NAN","NAN",67.09,60.45,76.26,"NAN","NAN","NAN",124.2,10.18,-14.3,82.8,972
"2018-10-11 18:50:00",34260,"NAN","NAN",86.1,76.26,92.9,"NAN","NAN","NAN",127.4,9.6,-14.27,85.2,972
"2018-10-11 19:00:00",34261,"NAN","NAN",102,92.1,120.1,"NAN","NAN","NAN",138.3,11.24,-13.79,85.6,972
"2018-10-11 19:10:00",34262,"NAN","NAN",118.4,104.3,135.9,"NAN","NAN","NAN",140.6,12.18,-13.86,85.6,972
"2018-10-11 19:20:00",34263,"NAN","NAN",123.9,119.7,128,"NAN","NAN","NAN",145.2,11.89,-13.72,86.6,972
"2018-10-11 19:30:00",34264,"NAN","NAN",114,100.8,124.1,"NAN","NAN","NAN",151,11.99,-13.41,84.6,973
"2018-10-11 19:40:00",34265,"NAN","NAN",100.1,95.6,105.1,"NAN","NAN","NAN",143.5,12.95,-13.41,84.8,973
"2018-10-11 19:50:00",34266,"NAN","NAN",100.4,96.8,107.9,"NAN","NAN","NAN",146.3,9.22,-13.45,85.3,973
"2018-10-11 20:00:00",34267,"NAN","NAN",102.2,98.4,110.6,"NAN","NAN","NAN",148.7,10.1,-13.45,86.9,975
"2018-10-11 20:10:00",34268,"NAN","NAN",112.6,107.5,115.8,"NAN","NAN","NAN",147.1,11.4,-13.58,85.7,975
"2018-10-11 20:20:00",34269,"NAN","NAN",119.1,111,133.5,"NAN","NAN","NAN",149.4,10.43,-13.48,85.5,975
"2018-10-11 20:30:00",34270,"NAN","NAN",141.6,132.8,146.2,"NAN","NAN","NAN",151,10.87,-13.48,84.5,975
"2018-10-11 20:40:00",34271,"NAN","NAN",145.7,141.8,148.2,"NAN","NAN","NAN",152.9,10.66,-13.62,84.8,975
"2018-10-11 20:50:00",34272,"NAN","NAN",145.7,141.8,149.7,"NAN","NAN","NAN",147.3,11.39,-14.13,83.9,975